sensor_id;sensor_type;location;lat;lon;timestamp;temperature;humidity
35894;DHT22;21994;48.204;16.516;2023-11-21T00:01:22;9.50;99.90
35894;DHT22;21994;48.204;16.516;2023-11-21T00:03:48;9.50;99.90
35894;DHT22;21994;48.204;16.516;2023-11-21T00:06:14;9.40;99.90
35894;DHT22;21994;48.204;16.516;2023-11-21T00:08:40;9.50;99.90
35894;DHT22;21994;48.204;16.516;2023-11-21T00:11:05;9.40;99.90
35894;DHT22;21994;48.204;16.516;2023-11-21T00:13:32;9.40;99.90
35894;DHT22;21994;48.204;16.516;2023-11-21T00:15:58;9.30;99.90
35894;DHT22;21994;48.204;16.516;2023-11-21T00:18:24;9.20;99.90
35894;DHT22;21994;48.204;16.516;2023-11-21T00:20:50;9.30;99.90
35894;DHT22;21994;48.204;16.516;2023-11-21T00:23:16;9.30;99.90
35894;DHT22;21994;48.204;16.516;2023-11-21T00:25:42;9.20;99.90
35894;DHT22;21994;48.204;16.516;2023-11-21T00:28:07;9.20;99.90
35894;DHT22;21994;48.204;16.516;2023-11-21T00:30:33;9.10;99.90
35894;DHT22;21994;48.204;16.516;2023-11-21T00:32:59;9.00;99.90
35894;DHT22;21994;48.204;16.516;2023-11-21T00:35:25;9.00;99.90
35894;DHT22;21994;48.204;16.516;2023-11-21T00:37:51;8.90;99.90
35894;DHT22;21994;48.204;16.516;2023-11-21T00:40:17;8.90;99.90
35894;DHT22;21994;48.204;16.516;2023-11-21T00:42:46;8.90;99.90
35894;DHT22;21994;48.204;16.516;2023-11-21T00:45:13;8.70;99.90
35894;DHT22;21994;48.204;16.516;2023-11-21T00:47:38;8.50;99.90
35894;DHT22;21994;48.204;16.516;2023-11-21T00:50:05;8.30;99.90
35894;DHT22;21994;48.204;16.516;2023-11-21T00:52:32;8.10;99.90
35894;DHT22;21994;48.204;16.516;2023-11-21T00:54:58;7.90;99.90
35894;DHT22;21994;48.204;16.516;2023-11-21T00:57:26;7.70;99.90
35894;DHT22;21994;48.204;16.516;2023-11-21T00:59:52;7.60;99.90
35894;DHT22;21994;48.204;16.516;2023-11-21T01:02:18;7.40;99.90
35894;DHT22;21994;48.204;16.516;2023-11-21T01:04:43;7.20;99.90
35894;DHT22;21994;48.204;16.516;2023-11-21T01:07:09;7.10;99.90
35894;DHT22;21994;48.204;16.516;2023-11-21T01:09:35;6.90;99.90
35894;DHT22;21994;48.204;16.516;2023-11-21T01:12:01;6.80;99.90
35894;DHT22;21994;48.204;16.516;2023-11-21T01:14:27;6.70;99.90
35894;DHT22;21994;48.204;16.516;2023-11-21T01:16:53;6.40;99.90
35894;DHT22;21994;48.204;16.516;2023-11-21T01:19:19;6.20;99.90
35894;DHT22;21994;48.204;16.516;2023-11-21T01:21:44;6.10;99.90
35894;DHT22;21994;48.204;16.516;2023-11-21T01:24:10;5.90;99.90
35894;DHT22;21994;48.204;16.516;2023-11-21T01:26:36;5.80;99.90
35894;DHT22;21994;48.204;16.516;2023-11-21T01:29:02;5.60;99.90
35894;DHT22;21994;48.204;16.516;2023-11-21T01:31:27;5.50;99.90
35894;DHT22;21994;48.204;16.516;2023-11-21T01:33:55;5.40;99.90
35894;DHT22;21994;48.204;16.516;2023-11-21T01:36:21;5.30;99.90
35894;DHT22;21994;48.204;16.516;2023-11-21T01:38:47;5.30;99.90
35894;DHT22;21994;48.204;16.516;2023-11-21T01:41:16;5.30;99.90
35894;DHT22;21994;48.204;16.516;2023-11-21T01:43:41;5.20;99.90
35894;DHT22;21994;48.204;16.516;2023-11-21T01:46:08;5.10;99.90
35894;DHT22;21994;48.204;16.516;2023-11-21T01:48:34;5.00;99.90
35894;DHT22;21994;48.204;16.516;2023-11-21T01:51:00;5.00;99.90
35894;DHT22;21994;48.204;16.516;2023-11-21T01:53:26;5.00;99.90
35894;DHT22;21994;48.204;16.516;2023-11-21T01:55:54;5.00;99.90
35894;DHT22;21994;48.204;16.516;2023-11-21T01:58:21;5.10;99.90
35894;DHT22;21994;48.204;16.516;2023-11-21T02:00:47;5.10;99.90
35894;DHT22;21994;48.204;16.516;2023-11-21T02:03:16;5.20;99.90
35894;DHT22;21994;48.204;16.516;2023-11-21T02:05:42;5.20;99.90
35894;DHT22;21994;48.204;16.516;2023-11-21T02:08:08;5.20;99.90
35894;DHT22;21994;48.204;16.516;2023-11-21T02:10:34;5.30;99.90
35894;DHT22;21994;48.204;16.516;2023-11-21T02:13:02;5.40;99.90
35894;DHT22;21994;48.204;16.516;2023-11-21T02:15:28;5.30;99.90
35894;DHT22;21994;48.204;16.516;2023-11-21T02:17:54;5.30;99.90
35894;DHT22;21994;48.204;16.516;2023-11-21T02:20:20;5.40;99.90
35894;DHT22;21994;48.204;16.516;2023-11-21T02:22:51;5.50;99.90
35894;DHT22;21994;48.204;16.516;2023-11-21T02:25:23;5.50;99.90
35894;DHT22;21994;48.204;16.516;2023-11-21T02:27:50;5.50;99.90
35894;DHT22;21994;48.204;16.516;2023-11-21T02:30:16;5.50;99.90
35894;DHT22;21994;48.204;16.516;2023-11-21T02:32:42;5.60;99.90
35894;DHT22;21994;48.204;16.516;2023-11-21T02:35:09;5.50;99.90
35894;DHT22;21994;48.204;16.516;2023-11-21T02:37:34;5.50;99.90
35894;DHT22;21994;48.204;16.516;2023-11-21T02:40:01;5.70;99.90
35894;DHT22;21994;48.204;16.516;2023-11-21T02:42:29;5.80;99.90
35894;DHT22;21994;48.204;16.516;2023-11-21T02:44:55;5.70;99.90
35894;DHT22;21994;48.204;16.516;2023-11-21T02:47:22;5.80;99.90
35894;DHT22;21994;48.204;16.516;2023-11-21T02:49:48;5.80;99.90
35894;DHT22;21994;48.204;16.516;2023-11-21T02:52:15;6.00;99.90
35894;DHT22;21994;48.204;16.516;2023-11-21T02:54:41;5.90;99.90
35894;DHT22;21994;48.204;16.516;2023-11-21T02:57:08;5.90;99.90
35894;DHT22;21994;48.204;16.516;2023-11-21T02:59:33;5.80;99.90
35894;DHT22;21994;48.204;16.516;2023-11-21T03:02:00;5.70;99.90
35894;DHT22;21994;48.204;16.516;2023-11-21T03:04:26;5.60;99.90
35894;DHT22;21994;48.204;16.516;2023-11-21T03:06:52;5.50;99.90
35894;DHT22;21994;48.204;16.516;2023-11-21T03:09:17;5.50;99.90
35894;DHT22;21994;48.204;16.516;2023-11-21T03:11:43;5.40;99.90
35894;DHT22;21994;48.204;16.516;2023-11-21T03:14:09;5.40;99.90
35894;DHT22;21994;48.204;16.516;2023-11-21T03:16:36;5.30;99.90
35894;DHT22;21994;48.204;16.516;2023-11-21T03:19:03;5.30;99.90
35894;DHT22;21994;48.204;16.516;2023-11-21T03:21:30;5.20;99.90
35894;DHT22;21994;48.204;16.516;2023-11-21T03:23:56;5.10;99.90
35894;DHT22;21994;48.204;16.516;2023-11-21T03:26:22;5.00;99.90
35894;DHT22;21994;48.204;16.516;2023-11-21T03:28:47;4.90;99.90
35894;DHT22;21994;48.204;16.516;2023-11-21T03:31:13;4.80;99.90
35894;DHT22;21994;48.204;16.516;2023-11-21T03:33:39;4.70;99.90
35894;DHT22;21994;48.204;16.516;2023-11-21T03:36:05;4.60;99.90
35894;DHT22;21994;48.204;16.516;2023-11-21T03:38:33;4.50;99.90
35894;DHT22;21994;48.204;16.516;2023-11-21T03:40:59;4.50;99.90
35894;DHT22;21994;48.204;16.516;2023-11-21T03:43:25;4.40;99.90
35894;DHT22;21994;48.204;16.516;2023-11-21T03:45:50;4.30;99.90
35894;DHT22;21994;48.204;16.516;2023-11-21T03:48:16;4.30;99.90
35894;DHT22;21994;48.204;16.516;2023-11-21T03:50:42;4.30;99.90
35894;DHT22;21994;48.204;16.516;2023-11-21T03:53:08;4.20;99.90
35894;DHT22;21994;48.204;16.516;2023-11-21T03:55:33;4.30;99.90
35894;DHT22;21994;48.204;16.516;2023-11-21T03:57:59;4.40;99.90
35894;DHT22;21994;48.204;16.516;2023-11-21T04:00:25;4.30;99.90
35894;DHT22;21994;48.204;16.516;2023-11-21T04:02:54;4.30;99.90
35894;DHT22;21994;48.204;16.516;2023-11-21T04:05:20;4.30;99.90
35894;DHT22;21994;48.204;16.516;2023-11-21T04:07:49;4.40;99.90
35894;DHT22;21994;48.204;16.516;2023-11-21T04:10:18;4.50;99.90
35894;DHT22;21994;48.204;16.516;2023-11-21T04:12:45;4.60;99.90
35894;DHT22;21994;48.204;16.516;2023-11-21T04:15:11;4.70;99.90
35894;DHT22;21994;48.204;16.516;2023-11-21T04:17:40;4.90;99.90
35894;DHT22;21994;48.204;16.516;2023-11-21T04:20:07;5.00;99.90
35894;DHT22;21994;48.204;16.516;2023-11-21T04:22:38;5.10;99.90
35894;DHT22;21994;48.204;16.516;2023-11-21T04:25:09;5.10;99.90
35894;DHT22;21994;48.204;16.516;2023-11-21T04:27:37;5.00;99.90
35894;DHT22;21994;48.204;16.516;2023-11-21T04:30:04;4.90;99.90
35894;DHT22;21994;48.204;16.516;2023-11-21T04:32:31;4.80;99.90
35894;DHT22;21994;48.204;16.516;2023-11-21T04:34:56;4.70;99.90
35894;DHT22;21994;48.204;16.516;2023-11-21T04:37:23;4.70;99.90
35894;DHT22;21994;48.204;16.516;2023-11-21T04:39:49;4.80;99.90
35894;DHT22;21994;48.204;16.516;2023-11-21T04:42:15;4.80;99.90
35894;DHT22;21994;48.204;16.516;2023-11-21T04:44:41;4.70;99.90
35894;DHT22;21994;48.204;16.516;2023-11-21T04:47:07;4.70;99.90
35894;DHT22;21994;48.204;16.516;2023-11-21T04:49:33;4.70;99.90
35894;DHT22;21994;48.204;16.516;2023-11-21T04:51:59;4.60;99.90
35894;DHT22;21994;48.204;16.516;2023-11-21T04:54:25;4.60;99.90
35894;DHT22;21994;48.204;16.516;2023-11-21T04:56:51;4.80;99.90
35894;DHT22;21994;48.204;16.516;2023-11-21T04:59:17;4.90;99.90
35894;DHT22;21994;48.204;16.516;2023-11-21T05:01:43;4.90;99.90
35894;DHT22;21994;48.204;16.516;2023-11-21T05:04:08;5.00;99.90
35894;DHT22;21994;48.204;16.516;2023-11-21T05:06:34;5.10;99.90
35894;DHT22;21994;48.204;16.516;2023-11-21T05:09:00;5.20;99.90
35894;DHT22;21994;48.204;16.516;2023-11-21T05:11:26;5.10;99.90
35894;DHT22;21994;48.204;16.516;2023-11-21T05:13:53;5.10;99.90
35894;DHT22;21994;48.204;16.516;2023-11-21T05:16:19;5.20;99.90
35894;DHT22;21994;48.204;16.516;2023-11-21T05:18:45;5.30;99.90
35894;DHT22;21994;48.204;16.516;2023-11-21T05:21:11;5.30;99.90
35894;DHT22;21994;48.204;16.516;2023-11-21T05:23:37;5.40;99.90
35894;DHT22;21994;48.204;16.516;2023-11-21T05:26:03;5.50;99.90
35894;DHT22;21994;48.204;16.516;2023-11-21T05:28:29;5.40;99.90
35894;DHT22;21994;48.204;16.516;2023-11-21T05:30:54;5.30;99.90
35894;DHT22;21994;48.204;16.516;2023-11-21T05:33:21;5.20;99.90
35894;DHT22;21994;48.204;16.516;2023-11-21T05:35:46;5.10;99.90
35894;DHT22;21994;48.204;16.516;2023-11-21T05:38:14;5.00;99.90
35894;DHT22;21994;48.204;16.516;2023-11-21T05:40:39;4.80;99.90
35894;DHT22;21994;48.204;16.516;2023-11-21T05:43:06;4.70;99.90
35894;DHT22;21994;48.204;16.516;2023-11-21T05:45:32;4.60;99.90
35894;DHT22;21994;48.204;16.516;2023-11-21T05:47:58;4.40;99.90
35894;DHT22;21994;48.204;16.516;2023-11-21T05:50:24;4.40;99.90
35894;DHT22;21994;48.204;16.516;2023-11-21T05:52:50;4.30;99.90
35894;DHT22;21994;48.204;16.516;2023-11-21T05:55:15;4.40;99.90
35894;DHT22;21994;48.204;16.516;2023-11-21T05:57:42;4.40;99.90
35894;DHT22;21994;48.204;16.516;2023-11-21T06:00:09;4.30;99.90
35894;DHT22;21994;48.204;16.516;2023-11-21T06:02:48;4.20;99.90
35894;DHT22;21994;48.204;16.516;2023-11-21T06:05:23;4.20;99.90
35894;DHT22;21994;48.204;16.516;2023-11-21T06:07:49;4.20;99.90
35894;DHT22;21994;48.204;16.516;2023-11-21T06:10:16;4.10;99.90
35894;DHT22;21994;48.204;16.516;2023-11-21T06:12:44;4.10;99.90
35894;DHT22;21994;48.204;16.516;2023-11-21T06:15:10;4.00;99.90
35894;DHT22;21994;48.204;16.516;2023-11-21T06:17:39;4.00;99.90
35894;DHT22;21994;48.204;16.516;2023-11-21T06:20:07;4.00;99.90
35894;DHT22;21994;48.204;16.516;2023-11-21T06:22:40;4.00;99.90
35894;DHT22;21994;48.204;16.516;2023-11-21T06:25:07;4.20;99.90
35894;DHT22;21994;48.204;16.516;2023-11-21T06:27:34;4.20;99.90
35894;DHT22;21994;48.204;16.516;2023-11-21T06:30:02;4.20;99.90
35894;DHT22;21994;48.204;16.516;2023-11-21T06:32:29;4.20;99.90
35894;DHT22;21994;48.204;16.516;2023-11-21T06:34:55;4.20;99.90
35894;DHT22;21994;48.204;16.516;2023-11-21T06:37:28;4.30;99.90
35894;DHT22;21994;48.204;16.516;2023-11-21T06:39:54;4.40;99.90
35894;DHT22;21994;48.204;16.516;2023-11-21T06:42:22;4.50;99.90
35894;DHT22;21994;48.204;16.516;2023-11-21T06:44:48;4.50;99.90
35894;DHT22;21994;48.204;16.516;2023-11-21T06:47:14;4.70;99.90
35894;DHT22;21994;48.204;16.516;2023-11-21T06:49:42;4.70;99.90
35894;DHT22;21994;48.204;16.516;2023-11-21T06:52:08;4.80;99.90
35894;DHT22;21994;48.204;16.516;2023-11-21T06:54:34;4.90;99.90
35894;DHT22;21994;48.204;16.516;2023-11-21T06:57:00;4.90;99.90
35894;DHT22;21994;48.204;16.516;2023-11-21T06:59:28;5.00;99.90
35894;DHT22;21994;48.204;16.516;2023-11-21T07:01:54;5.10;99.90
35894;DHT22;21994;48.204;16.516;2023-11-21T07:04:20;5.20;99.90
35894;DHT22;21994;48.204;16.516;2023-11-21T07:06:45;5.20;99.90
35894;DHT22;21994;48.204;16.516;2023-11-21T07:09:11;5.30;99.90
35894;DHT22;21994;48.204;16.516;2023-11-21T07:11:37;5.30;99.90
35894;DHT22;21994;48.204;16.516;2023-11-21T07:14:04;5.70;99.90
35894;DHT22;21994;48.204;16.516;2023-11-21T07:16:36;5.90;99.90
35894;DHT22;21994;48.204;16.516;2023-11-21T07:19:03;5.90;99.90
35894;DHT22;21994;48.204;16.516;2023-11-21T07:21:31;5.90;99.90
35894;DHT22;21994;48.204;16.516;2023-11-21T07:24:01;6.20;99.90
35894;DHT22;21994;48.204;16.516;2023-11-21T07:26:28;6.50;99.90
35894;DHT22;21994;48.204;16.516;2023-11-21T07:28:55;6.50;99.90
35894;DHT22;21994;48.204;16.516;2023-11-21T07:31:21;6.40;99.90
35894;DHT22;21994;48.204;16.516;2023-11-21T07:33:48;6.40;99.90
35894;DHT22;21994;48.204;16.516;2023-11-21T07:36:17;6.30;99.90
35894;DHT22;21994;48.204;16.516;2023-11-21T07:38:44;6.20;99.90
35894;DHT22;21994;48.204;16.516;2023-11-21T07:41:10;6.30;99.90
35894;DHT22;21994;48.204;16.516;2023-11-21T07:43:36;6.40;99.90
35894;DHT22;21994;48.204;16.516;2023-11-21T07:46:02;6.50;99.90
35894;DHT22;21994;48.204;16.516;2023-11-21T07:48:29;6.50;99.90
35894;DHT22;21994;48.204;16.516;2023-11-21T07:50:55;6.60;99.90
35894;DHT22;21994;48.204;16.516;2023-11-21T07:53:21;6.70;99.90
35894;DHT22;21994;48.204;16.516;2023-11-21T07:55:47;6.70;99.90
35894;DHT22;21994;48.204;16.516;2023-11-21T07:58:13;6.90;99.90
35894;DHT22;21994;48.204;16.516;2023-11-21T08:00:38;7.10;99.90
35894;DHT22;21994;48.204;16.516;2023-11-21T08:03:05;7.30;99.90
35894;DHT22;21994;48.204;16.516;2023-11-21T08:05:34;7.50;99.90
35894;DHT22;21994;48.204;16.516;2023-11-21T08:08:00;7.70;99.90
35894;DHT22;21994;48.204;16.516;2023-11-21T08:10:26;7.70;99.90
35894;DHT22;21994;48.204;16.516;2023-11-21T08:12:52;7.90;99.90
35894;DHT22;21994;48.204;16.516;2023-11-21T08:15:19;8.00;99.90
35894;DHT22;21994;48.204;16.516;2023-11-21T08:17:46;8.00;99.90
35894;DHT22;21994;48.204;16.516;2023-11-21T08:20:12;8.00;99.90
35894;DHT22;21994;48.204;16.516;2023-11-21T08:22:44;8.10;99.90
35894;DHT22;21994;48.204;16.516;2023-11-21T08:25:10;8.10;99.90
35894;DHT22;21994;48.204;16.516;2023-11-21T08:27:36;8.40;99.90
35894;DHT22;21994;48.204;16.516;2023-11-21T08:30:03;8.40;99.90
35894;DHT22;21994;48.204;16.516;2023-11-21T08:32:29;8.70;99.90
35894;DHT22;21994;48.204;16.516;2023-11-21T08:34:57;8.80;99.90
35894;DHT22;21994;48.204;16.516;2023-11-21T08:37:23;8.70;99.90
35894;DHT22;21994;48.204;16.516;2023-11-21T08:39:49;8.70;99.90
35894;DHT22;21994;48.204;16.516;2023-11-21T08:42:15;8.70;99.90
35894;DHT22;21994;48.204;16.516;2023-11-21T08:44:41;8.80;99.90
35894;DHT22;21994;48.204;16.516;2023-11-21T08:47:07;8.90;99.90
35894;DHT22;21994;48.204;16.516;2023-11-21T08:49:33;9.00;99.90
35894;DHT22;21994;48.204;16.516;2023-11-21T08:51:58;9.00;99.90
35894;DHT22;21994;48.204;16.516;2023-11-21T08:54:25;9.10;99.90
35894;DHT22;21994;48.204;16.516;2023-11-21T08:56:52;9.10;99.90
35894;DHT22;21994;48.204;16.516;2023-11-21T08:59:18;9.10;99.90
35894;DHT22;21994;48.204;16.516;2023-11-21T09:01:45;9.20;99.90
35894;DHT22;21994;48.204;16.516;2023-11-21T09:04:12;9.20;99.90
35894;DHT22;21994;48.204;16.516;2023-11-21T09:06:38;9.30;99.90
35894;DHT22;21994;48.204;16.516;2023-11-21T09:09:05;9.30;99.90
35894;DHT22;21994;48.204;16.516;2023-11-21T09:11:34;9.50;99.90
35894;DHT22;21994;48.204;16.516;2023-11-21T09:14:01;9.70;99.90
35894;DHT22;21994;48.204;16.516;2023-11-21T09:16:28;10.00;99.90
35894;DHT22;21994;48.204;16.516;2023-11-21T09:18:54;10.00;99.90
35894;DHT22;21994;48.204;16.516;2023-11-21T09:21:20;9.90;99.90
35894;DHT22;21994;48.204;16.516;2023-11-21T09:23:46;9.90;99.90
35894;DHT22;21994;48.204;16.516;2023-11-21T09:26:12;9.90;99.90
35894;DHT22;21994;48.204;16.516;2023-11-21T09:28:37;9.80;99.90
35894;DHT22;21994;48.204;16.516;2023-11-21T09:31:04;9.80;99.90
35894;DHT22;21994;48.204;16.516;2023-11-21T09:33:34;9.60;99.90
35894;DHT22;21994;48.204;16.516;2023-11-21T09:36:00;9.50;99.90
35894;DHT22;21994;48.204;16.516;2023-11-21T09:38:26;9.50;99.90
35894;DHT22;21994;48.204;16.516;2023-11-21T09:40:54;9.40;99.90
35894;DHT22;21994;48.204;16.516;2023-11-21T09:43:23;9.50;99.90
35894;DHT22;21994;48.204;16.516;2023-11-21T09:45:54;9.50;99.90
35894;DHT22;21994;48.204;16.516;2023-11-21T09:48:23;9.60;99.90
35894;DHT22;21994;48.204;16.516;2023-11-21T09:50:50;9.80;99.90
35894;DHT22;21994;48.204;16.516;2023-11-21T09:55:53;10.00;99.90
35894;DHT22;21994;48.204;16.516;2023-11-21T09:58:20;10.20;99.90
35894;DHT22;21994;48.204;16.516;2023-11-21T10:00:48;10.20;99.90
35894;DHT22;21994;48.204;16.516;2023-11-21T10:03:14;10.30;99.90
35894;DHT22;21994;48.204;16.516;2023-11-21T10:05:44;10.30;99.90
35894;DHT22;21994;48.204;16.516;2023-11-21T10:08:15;10.40;99.90
35894;DHT22;21994;48.204;16.516;2023-11-21T10:10:45;10.40;99.90
35894;DHT22;21994;48.204;16.516;2023-11-21T10:13:12;10.50;99.90
35894;DHT22;21994;48.204;16.516;2023-11-21T10:15:42;10.70;99.90
35894;DHT22;21994;48.204;16.516;2023-11-21T10:18:14;10.80;99.90
35894;DHT22;21994;48.204;16.516;2023-11-21T10:20:40;11.10;99.90
35894;DHT22;21994;48.204;16.516;2023-11-21T10:23:07;11.40;99.90
35894;DHT22;21994;48.204;16.516;2023-11-21T10:25:36;11.50;99.90
35894;DHT22;21994;48.204;16.516;2023-11-21T10:28:03;11.50;99.90
35894;DHT22;21994;48.204;16.516;2023-11-21T10:30:35;11.60;99.90
35894;DHT22;21994;48.204;16.516;2023-11-21T10:33:03;12.00;99.90
35894;DHT22;21994;48.204;16.516;2023-11-21T10:35:39;12.70;99.90
35894;DHT22;21994;48.204;16.516;2023-11-21T10:38:20;13.30;99.90
35894;DHT22;21994;48.204;16.516;2023-11-21T10:40:48;14.20;99.90
35894;DHT22;21994;48.204;16.516;2023-11-21T10:43:14;14.90;99.90
35894;DHT22;21994;48.204;16.516;2023-11-21T10:45:42;15.50;99.90
35894;DHT22;21994;48.204;16.516;2023-11-21T10:48:10;15.50;99.90
35894;DHT22;21994;48.204;16.516;2023-11-21T10:50:37;15.00;99.90
35894;DHT22;21994;48.204;16.516;2023-11-21T10:53:03;15.20;99.90
35894;DHT22;21994;48.204;16.516;2023-11-21T10:55:30;15.50;99.90
35894;DHT22;21994;48.204;16.516;2023-11-21T10:58:01;15.70;99.90
35894;DHT22;21994;48.204;16.516;2023-11-21T11:00:30;15.50;99.90
35894;DHT22;21994;48.204;16.516;2023-11-21T11:02:56;15.00;99.90
35894;DHT22;21994;48.204;16.516;2023-11-21T11:05:25;14.80;99.90
35894;DHT22;21994;48.204;16.516;2023-11-21T11:10:32;14.50;99.90
35894;DHT22;21994;48.204;16.516;2023-11-21T11:12:58;14.50;99.90
35894;DHT22;21994;48.204;16.516;2023-11-21T11:15:24;14.30;99.90
35894;DHT22;21994;48.204;16.516;2023-11-21T11:17:51;14.20;99.90
35894;DHT22;21994;48.204;16.516;2023-11-21T11:20:17;14.10;99.90
35894;DHT22;21994;48.204;16.516;2023-11-21T11:28:42;13.40;99.90
35894;DHT22;21994;48.204;16.516;2023-11-21T11:34:06;13.10;99.90
35894;DHT22;21994;48.204;16.516;2023-11-21T11:37:01;13.00;99.90
35894;DHT22;21994;48.204;16.516;2023-11-21T11:39:34;12.80;99.90
35894;DHT22;21994;48.204;16.516;2023-11-21T11:42:02;12.60;99.90
35894;DHT22;21994;48.204;16.516;2023-11-21T11:55:05;12.90;99.90
35894;DHT22;21994;48.204;16.516;2023-11-21T11:57:35;12.70;99.90
35894;DHT22;21994;48.204;16.516;2023-11-21T12:00:14;12.70;99.90
35894;DHT22;21994;48.204;16.516;2023-11-21T12:02:51;12.50;99.90
35894;DHT22;21994;48.204;16.516;2023-11-21T12:05:19;12.40;99.90
35894;DHT22;21994;48.204;16.516;2023-11-21T12:07:52;12.30;99.90
35894;DHT22;21994;48.204;16.516;2023-11-21T12:10:21;12.10;99.90
35894;DHT22;21994;48.204;16.516;2023-11-21T12:12:58;12.10;99.90
35894;DHT22;21994;48.204;16.516;2023-11-21T12:15:26;12.10;99.90
35894;DHT22;21994;48.204;16.516;2023-11-21T12:17:55;12.10;99.90
35894;DHT22;21994;48.204;16.516;2023-11-21T12:20:23;12.10;99.90
35894;DHT22;21994;48.204;16.516;2023-11-21T12:22:51;12.20;99.90
35894;DHT22;21994;48.204;16.516;2023-11-21T12:25:22;12.20;99.90
35894;DHT22;21994;48.204;16.516;2023-11-21T12:27:51;12.20;99.90
35894;DHT22;21994;48.204;16.516;2023-11-21T12:30:19;12.30;99.90
35894;DHT22;21994;48.204;16.516;2023-11-21T12:32:52;12.40;99.90
35894;DHT22;21994;48.204;16.516;2023-11-21T12:35:26;12.40;99.90
35894;DHT22;21994;48.204;16.516;2023-11-21T12:37:54;12.50;99.90
35894;DHT22;21994;48.204;16.516;2023-11-21T12:40:21;12.60;99.90
35894;DHT22;21994;48.204;16.516;2023-11-21T12:42:51;12.70;99.90
35894;DHT22;21994;48.204;16.516;2023-11-21T12:45:21;12.60;99.90
35894;DHT22;21994;48.204;16.516;2023-11-21T12:47:50;12.50;99.90
35894;DHT22;21994;48.204;16.516;2023-11-21T12:50:23;12.40;99.90
35894;DHT22;21994;48.204;16.516;2023-11-21T12:52:57;12.30;99.90
35894;DHT22;21994;48.204;16.516;2023-11-21T12:55:25;12.30;99.90
35894;DHT22;21994;48.204;16.516;2023-11-21T12:57:55;12.30;99.90
35894;DHT22;21994;48.204;16.516;2023-11-21T13:00:47;12.10;99.90
35894;DHT22;21994;48.204;16.516;2023-11-21T13:03:16;12.10;99.90
35894;DHT22;21994;48.204;16.516;2023-11-21T13:05:45;12.00;99.90
35894;DHT22;21994;48.204;16.516;2023-11-21T13:08:16;12.00;99.90
35894;DHT22;21994;48.204;16.516;2023-11-21T13:10:46;11.90;99.90
35894;DHT22;21994;48.204;16.516;2023-11-21T13:13:15;11.80;99.90
35894;DHT22;21994;48.204;16.516;2023-11-21T13:15:51;11.80;99.90
35894;DHT22;21994;48.204;16.516;2023-11-21T13:18:25;11.70;99.90
35894;DHT22;21994;48.204;16.516;2023-11-21T13:20:53;11.80;99.90
35894;DHT22;21994;48.204;16.516;2023-11-21T13:23:23;11.80;99.90
35894;DHT22;21994;48.204;16.516;2023-11-21T13:25:50;11.80;99.90
35894;DHT22;21994;48.204;16.516;2023-11-21T13:28:16;11.80;99.90
35894;DHT22;21994;48.204;16.516;2023-11-21T13:30:44;11.80;99.90
35894;DHT22;21994;48.204;16.516;2023-11-21T13:33:10;11.90;99.90
35894;DHT22;21994;48.204;16.516;2023-11-21T13:35:39;11.80;99.90
35894;DHT22;21994;48.204;16.516;2023-11-21T13:38:11;11.80;99.90
35894;DHT22;21994;48.204;16.516;2023-11-21T13:40:39;11.80;99.90
35894;DHT22;21994;48.204;16.516;2023-11-21T13:43:12;11.70;99.90
35894;DHT22;21994;48.204;16.516;2023-11-21T13:45:40;11.80;99.90
35894;DHT22;21994;48.204;16.516;2023-11-21T13:48:07;11.80;99.90
35894;DHT22;21994;48.204;16.516;2023-11-21T13:50:39;11.60;99.90
35894;DHT22;21994;48.204;16.516;2023-11-21T13:53:14;11.40;99.90
35894;DHT22;21994;48.204;16.516;2023-11-21T13:55:53;11.30;99.90
35894;DHT22;21994;48.204;16.516;2023-11-21T13:58:29;11.20;99.90
35894;DHT22;21994;48.204;16.516;2023-11-21T14:01:13;11.10;99.90
35894;DHT22;21994;48.204;16.516;2023-11-21T14:04:03;11.00;99.90
35894;DHT22;21994;48.204;16.516;2023-11-21T14:06:56;10.80;99.90
35894;DHT22;21994;48.204;16.516;2023-11-21T14:09:24;10.70;99.90
35894;DHT22;21994;48.204;16.516;2023-11-21T14:11:55;10.70;99.90
35894;DHT22;21994;48.204;16.516;2023-11-21T14:14:34;10.60;99.90
35894;DHT22;21994;48.204;16.516;2023-11-21T14:17:00;10.60;99.90
35894;DHT22;21994;48.204;16.516;2023-11-21T14:19:25;10.50;99.90
35894;DHT22;21994;48.204;16.516;2023-11-21T14:21:57;10.40;99.90
35894;DHT22;21994;48.204;16.516;2023-11-21T14:24:23;10.50;99.90
35894;DHT22;21994;48.204;16.516;2023-11-21T14:26:50;10.40;99.90
35894;DHT22;21994;48.204;16.516;2023-11-21T14:29:18;10.40;99.90
35894;DHT22;21994;48.204;16.516;2023-11-21T14:31:49;10.40;99.90
35894;DHT22;21994;48.204;16.516;2023-11-21T14:34:21;10.40;99.90
35894;DHT22;21994;48.204;16.516;2023-11-21T14:36:47;10.40;99.90
35894;DHT22;21994;48.204;16.516;2023-11-21T14:39:15;10.40;99.90
35894;DHT22;21994;48.204;16.516;2023-11-21T14:41:53;10.40;99.90
35894;DHT22;21994;48.204;16.516;2023-11-21T14:44:21;10.30;99.90
35894;DHT22;21994;48.204;16.516;2023-11-21T14:46:52;10.20;99.90
35894;DHT22;21994;48.204;16.516;2023-11-21T14:49:20;10.30;99.90
35894;DHT22;21994;48.204;16.516;2023-11-21T14:51:55;10.20;99.90
35894;DHT22;21994;48.204;16.516;2023-11-21T14:54:45;10.20;99.90
35894;DHT22;21994;48.204;16.516;2023-11-21T14:57:15;10.10;99.90
35894;DHT22;21994;48.204;16.516;2023-11-21T14:59:45;10.00;99.90
35894;DHT22;21994;48.204;16.516;2023-11-21T15:02:23;9.90;99.90
35894;DHT22;21994;48.204;16.516;2023-11-21T15:05:09;9.80;99.90
35894;DHT22;21994;48.204;16.516;2023-11-21T15:07:41;9.80;99.90
35894;DHT22;21994;48.204;16.516;2023-11-21T15:10:08;9.80;99.90
35894;DHT22;21994;48.204;16.516;2023-11-21T15:12:40;9.70;99.90
35894;DHT22;21994;48.204;16.516;2023-11-21T15:15:09;9.60;99.90
35894;DHT22;21994;48.204;16.516;2023-11-21T15:17:36;9.50;99.90
35894;DHT22;21994;48.204;16.516;2023-11-21T15:20:03;9.40;99.90
35894;DHT22;21994;48.204;16.516;2023-11-21T15:22:32;9.30;99.90
35894;DHT22;21994;48.204;16.516;2023-11-21T15:24:58;9.30;99.90
35894;DHT22;21994;48.204;16.516;2023-11-21T15:27:25;9.30;99.90
35894;DHT22;21994;48.204;16.516;2023-11-21T15:29:52;9.20;99.90
35894;DHT22;21994;48.204;16.516;2023-11-21T15:32:19;9.20;99.90
35894;DHT22;21994;48.204;16.516;2023-11-21T15:34:45;9.20;99.90
35894;DHT22;21994;48.204;16.516;2023-11-21T15:37:12;9.10;99.90
35894;DHT22;21994;48.204;16.516;2023-11-21T15:39:38;9.10;99.90
35894;DHT22;21994;48.204;16.516;2023-11-21T15:42:05;9.00;99.90
35894;DHT22;21994;48.204;16.516;2023-11-21T15:44:33;8.90;99.90
35894;DHT22;21994;48.204;16.516;2023-11-21T15:46:59;8.90;99.90
35894;DHT22;21994;48.204;16.516;2023-11-21T15:49:25;8.90;99.90
35894;DHT22;21994;48.204;16.516;2023-11-21T15:51:53;8.90;99.90
35894;DHT22;21994;48.204;16.516;2023-11-21T15:54:22;8.70;99.90
35894;DHT22;21994;48.204;16.516;2023-11-21T15:56:50;8.60;99.90